Mancos, CO

5:18 AM MST on December 27, 2014 (GMT -0700)
East Canyon | Change Station
CLOSE
Current Station
Personal Weather Station
Location: Mancos, CO
Elevation: 7550 ft
Nearby Weather Stations

Elev 7550 ft 37.30 °N, 108.23 °W | Updated 9 minutes ago

Partly Cloudy
Partly Cloudy
5.0 °F
Feels Like 5 °F
N
1.0
Wind Variable Wind from NNE
Gusts 3.0 mph

Today
High -- | Low -- °F
--% Chance of Precip.
Yesterday
High -- | Low -- °F
Precip. -- in
7:26 AM 5:02 PM
Waxing Crescent, 36% visible
Pressure 30.30 in
Visibility 10.0 miles
Clouds Clear
Windchill 5 °F
Dew Point -9 °F
Humidity 51%
Rainfall 0.00 in
Snow Depth Not available.
UV 0 out of 12
Pollen .40 out of 12
Air Quality Not available.
Flu Activity Not available.
METAR KCEZ 271153Z AUTO 07006KT 10SM CLR M16/M18 A3015 RMK AO2 SLP258 T11561178 11089 21161 51019

More Conditions Fewer Conditions

Pressure 30.30 in
Visibility 10.0 miles
Clouds Clear
Windchill 5 °F
Dew Point -9 °F
Humidity 51%
Rainfall 0.00 in
Snow Depth Not available.
UV 0 out of 12
Pollen .40 out of 12
Air Quality Not available.
Flu Activity Not available.
METAR KCEZ 271153Z AUTO 07006KT 10SM CLR M16/M18 A3015 RMK AO2 SLP258 T11561178 11089 21161 51019

More Conditions Fewer Conditions

10-Day Weather Forecast

Almanac

Astronomy

Dec. 27, 2014 Rise Set
Actual Time
Civil Twilight
Nautical Twilight
Astronomical Twilight
Moon
Length of Visible Light
Length of Day
Tomorrow will be .
, % of the Moon is Illuminated

Today's Extremes

State Highs State Lows

Community

WunderPhotos

Upload Photos

1,780,885 photos uploaded!

WunderBlogs® & News

Nearby

Air Quality

  Air Quality AQ Index Pollutant
Not available.

Snow Depth

Station Depth Elevation

Earthquake Activity

City Distance Mag. Time & Date
Minimum magnitude displayed is 2.5.

Coastal Water Temperatures

Place Temperature

Nearby Weather Stations